76CN weather

El Centro Regional Medical Center Heliport
El Centro, California, United States

Public forecast

Using degrees Fahrenheit for public forecast. Weather courtesy of forecast.io.

METAR (pilot weather report)

Closest report is Imperial County Airport, 3.3 nm (6.1 km) N. Retrieved 2019/08/23 08:53 UTC (1 hour ago):

KIPL 230853Z AUTO 12010KT 10SM CLR 31/20 A2966 RMK AO2 SLP045 T03060200 51016

TAF (pilot weather forecast)

Closest forecast is Imperial County Airport, 3.3 nm (6.1 km) N. Retrieved 2019/08/23 06:42 UTC (3 hours ago):

TAF KIPL 230541Z 2306/2406 16005KT P6SM FEW250 FM231700 15008KT P6SM FEW250